Time;durP1;ratioP1;P1;durP2;ratioP2;P2;SDS_P1;SDS_P2;PMS_P1;PMS_P2;Temp;Humidity;BMP_temperature;BMP_pressure;BME280_temperature;BME280_humidity;BME280_pressure;Samples;Min_cycle;Max_cycle;Signal;HPM_P1;HPM_P2
2021/08/04 00:01:42;;;;;;;13.13;7.43;;;;;;;28.26;35.69;93849.19;4987319;28;20073;-76
2021/08/04 00:04:09;;;;;;;14.82;5.78;;;;;;;28.18;34.89;93836.81;4983486;28;20143;-77
2021/08/04 00:06:34;;;;;;;11.32;6.13;;;;;;;28.14;34.83;93836.06;4984703;28;20447;-76
2021/08/04 00:09:00;;;;;;;13.70;6.78;;;;;;;28.16;34.75;93850.78;4985032;28;20065;-76
2021/08/04 00:11:25;;;;;;;10.82;6.03;;;;;;;28.04;34.82;93848.53;4985007;28;20210;-77
2021/08/04 00:13:51;;;;;;;9.23;6.50;;;;;;;27.93;35.02;93836.94;4986293;28;20025;-76
2021/08/04 00:16:16;;;;;;;16.23;6.15;;;;;;;27.92;35.22;93852.47;4985225;28;20041;-76
2021/08/04 00:18:41;;;;;;;10.27;6.80;;;;;;;27.85;35.18;93844.38;4982252;28;20046;-76
2021/08/04 00:21:07;;;;;;;9.60;6.13;;;;;;;27.76;35.43;93843.25;4987494;28;20042;-77
2021/08/04 00:23:32;;;;;;;11.82;6.30;;;;;;;27.71;35.15;93852.56;4983561;28;20964;-74
2021/08/04 00:25:58;;;;;;;10.32;6.13;;;;;;;27.76;34.94;93849.44;4983643;28;20065;-77
2021/08/04 00:28:24;;;;;;;11.48;5.82;;;;;;;27.72;35.09;93847.91;4987314;28;20046;-77
2021/08/04 00:30:49;;;;;;;11.15;6.93;;;;;;;27.62;35.28;93844.09;4983317;28;20608;-77
2021/08/04 00:33:14;;;;;;;16.23;6.57;;;;;;;27.70;35.36;93861.91;4982737;28;20026;-75
2021/08/04 00:35:40;;;;;;;17.90;7.72;;;;;;;27.72;35.54;93861.50;4980824;28;20034;-76
2021/08/04 00:38:10;;;;;;;8.50;5.57;;;;;;;27.68;35.06;93860.72;4984006;28;20608;-76
2021/08/04 00:40:36;;;;;;;11.73;6.13;;;;;;;27.61;35.98;93858.84;4979271;28;20031;-76
2021/08/04 00:43:01;;;;;;;15.77;7.05;;;;;;;27.62;36.04;93871.22;4987157;28;20056;-75
2021/08/04 00:45:27;;;;;;;12.40;5.78;;;;;;;27.56;35.40;93856.53;4984025;28;20065;-76
2021/08/04 00:47:52;;;;;;;6.60;5.15;;;;;;;27.67;36.78;93865.38;4984286;28;20125;-78
2021/08/04 00:50:18;;;;;;;8.88;6.00;;;;;;;27.42;36.58;93851.88;4986989;28;20065;-76
2021/08/04 00:52:45;;;;;;;8.07;5.82;;;;;;;27.46;36.79;93852.66;4980113;28;20113;-76
2021/08/04 00:55:10;;;;;;;11.25;6.38;;;;;;;27.25;36.43;93857.38;4986004;28;20504;-76
2021/08/04 00:57:36;;;;;;;14.25;5.72;;;;;;;27.44;36.86;93859.66;4980697;28;20050;-76
2021/08/04 01:00:04;;;;;;;8.15;5.90;;;;;;;27.53;36.03;93851.88;4983326;28;20046;-77
2021/08/04 01:02:57;;;;;;;10.88;6.38;;;;;;;27.52;35.65;93842.19;4989898;28;20038;-76
2021/08/04 01:05:26;;;;;;;13.50;5.57;;;;;;;27.53;35.47;93841.81;4989080;28;20045;-77
2021/08/04 01:08:06;;;;;;;12.70;5.68;;;;;;;27.49;36.67;93832.91;4989299;28;20077;-76
2021/08/04 01:10:37;;;;;;;11.35;5.75;;;;;;;27.58;38.02;93854.19;4989928;28;20030;-76
2021/08/04 01:13:09;;;;;;;17.10;5.82;;;;;;;27.58;37.22;93856.91;4989200;28;20037;-77
2021/08/04 01:15:40;;;;;;;10.52;4.97;;;;;;;27.50;37.05;93837.16;4987735;28;20081;-76
2021/08/04 01:18:06;;;;;;;11.73;5.38;;;;;;;27.39;36.07;93849.19;5004196;28;20584;-76
2021/08/04 01:20:32;;;;;;;14.55;6.45;;;;;;;27.44;36.09;93848.78;4991816;28;20061;-78
2021/08/04 01:23:10;;;;;;;10.07;5.78;;;;;;;27.68;35.86;93856.09;4986818;28;20037;-76
2021/08/04 01:25:59;;;;;;;15.00;6.38;;;;;;;27.66;35.60;93852.22;4987119;28;20050;-76
2021/08/04 01:28:33;;;;;;;10.85;5.20;;;;;;;27.41;35.94;93842.22;4993105;28;20125;-76
2021/08/04 01:31:04;;;;;;;10.90;5.35;;;;;;;27.41;36.53;93863.16;4987035;28;20086;-76
2021/08/04 01:33:30;;;;;;;14.23;6.45;;;;;;;27.39;36.40;93858.13;4986615;28;20054;-76
2021/08/04 01:35:56;;;;;;;16.52;6.53;;;;;;;27.29;36.80;93852.72;4986848;28;20033;-76
2021/08/04 01:38:22;;;;;;;10.45;5.70;;;;;;;27.12;36.90;93860.50;4987513;28;20037;-77
2021/08/04 01:40:50;;;;;;;10.88;6.18;;;;;;;26.99;38.25;93847.75;4987257;28;20489;-76
2021/08/04 01:43:18;;;;;;;15.95;7.05;;;;;;;26.96;37.82;93843.91;4987740;28;20397;-77
2021/08/04 01:45:45;;;;;;;11.20;5.38;;;;;;;27.02;38.13;93845.06;4983060;28;20038;-76
2021/08/04 01:48:11;;;;;;;15.30;6.20;;;;;;;26.86;37.58;93820.28;4988560;28;20033;-76
2021/08/04 01:50:37;;;;;;;15.15;6.25;;;;;;;27.03;38.12;93854.72;4986772;28;20697;-76
2021/08/04 01:53:04;;;;;;;10.02;5.85;;;;;;;27.07;38.98;93873.72;4985059;28;20096;-76
2021/08/04 01:55:29;;;;;;;9.20;5.20;;;;;;;26.95;38.66;93861.31;4986918;28;20030;-76
2021/08/04 01:57:56;;;;;;;10.95;6.20;;;;;;;26.90;38.31;93856.28;4987116;28;20120;-75
2021/08/04 02:00:21;;;;;;;11.25;7.10;;;;;;;26.88;39.08;93866.75;4987425;28;20165;-76
2021/08/04 02:02:46;;;;;;;10.05;6.28;;;;;;;26.87;38.62;93869.88;4989775;28;20083;-76
2021/08/04 02:05:12;;;;;;;8.98;6.30;;;;;;;26.82;38.67;93857.44;4986312;28;20468;-77
2021/08/04 02:07:56;;;;;;;10.63;6.03;;;;;;;26.83;39.05;93874.50;4988091;28;20194;-78
2021/08/04 02:10:36;;;;;;;12.20;6.38;;;;;;;26.87;39.29;93870.66;4986659;28;20400;-76
2021/08/04 02:13:15;;;;;;;11.93;6.55;;;;;;;26.89;39.33;93854.75;4988570;28;20053;-77
2021/08/04 02:15:42;;;;;;;8.57;6.03;;;;;;;26.93;38.95;93869.06;4987595;28;21196;-76
2021/08/04 02:18:12;;;;;;;10.50;6.70;;;;;;;26.87;38.93;93876.06;4985638;28;20042;-77
2021/08/04 02:20:39;;;;;;;16.88;6.70;;;;;;;26.68;39.46;93841.94;4989433;28;20404;-77
2021/08/04 02:23:12;;;;;;;14.20;7.28;;;;;;;26.76;39.57;93869.84;4983190;28;20041;-76
2021/08/04 02:25:42;;;;;;;9.95;6.28;;;;;;;26.67;40.07;93878.38;4986786;28;20476;-77
2021/08/04 02:28:11;;;;;;;11.05;7.50;;;;;;;26.46;40.22;93850.50;4987126;28;20103;-77
2021/08/04 02:30:39;;;;;;;11.80;7.15;;;;;;;26.65;40.07;93871.78;4989320;28;20030;-75
2021/08/04 02:33:05;;;;;;;14.60;7.15;;;;;;;26.56;40.17;93874.88;4986211;28;20051;-76
2021/08/04 02:35:31;;;;;;;11.38;6.72;;;;;;;26.59;40.34;93887.66;4984493;28;20030;-77
2021/08/04 02:37:56;;;;;;;12.30;6.97;;;;;;;26.65;40.23;93891.53;4987851;28;20076;-77
2021/08/04 02:40:22;;;;;;;10.02;6.90;;;;;;;26.62;40.59;93897.75;4988637;28;20025;-76
2021/08/04 02:42:48;;;;;;;9.98;7.03;;;;;;;26.62;40.35;93897.75;4983159;28;20038;-76
2021/08/04 02:45:14;;;;;;;12.02;7.22;;;;;;;26.65;40.40;93901.59;4988850;28;20042;-76
2021/08/04 02:47:41;;;;;;;14.30;7.28;;;;;;;26.69;40.71;93905.84;4989365;28;20401;-77
2021/08/04 02:50:08;;;;;;;14.25;7.63;;;;;;;26.65;40.88;93907.00;4984906;28;20082;-76
2021/08/04 02:52:34;;;;;;;14.13;7.15;;;;;;;26.73;40.51;93914.00;4985523;28;20069;-77
2021/08/04 02:55:00;;;;;;;12.68;7.97;;;;;;;26.70;40.85;93899.28;4985886;28;20292;-76
2021/08/04 02:57:27;;;;;;;10.77;7.75;;;;;;;26.71;41.15;93905.47;4985430;28;20061;-76
2021/08/04 02:59:52;;;;;;;13.88;8.10;;;;;;;26.55;41.37;93891.53;4985035;28;20547;-77
2021/08/04 03:02:18;;;;;;;10.55;7.32;;;;;;;26.63;40.75;93893.84;4984336;28;20377;-77
2021/08/04 03:04:43;;;;;;;14.18;7.53;;;;;;;26.70;41.04;93903.91;4986995;28;20026;-76
2021/08/04 03:07:09;;;;;;;11.80;7.38;;;;;;;26.57;41.11;93894.63;4985445;28;20107;-76
2021/08/04 03:09:34;;;;;;;12.00;7.03;;;;;;;26.60;41.15;93901.97;4986428;28;20041;-76
2021/08/04 03:12:00;;;;;;;10.60;7.38;;;;;;;26.57;40.62;93883.78;4984378;28;20458;-76
2021/08/04 03:14:26;;;;;;;11.52;7.38;;;;;;;26.52;40.70;93897.72;4990087;28;20181;-76
2021/08/04 03:16:51;;;;;;;20.02;8.50;;;;;;;26.50;40.40;93894.63;4983204;28;20065;-77
2021/08/04 03:19:16;;;;;;;19.70;7.07;;;;;;;26.52;40.63;93903.16;4983302;28;20026;-76
2021/08/04 03:21:42;;;;;;;13.50;7.18;;;;;;;26.30;40.88;93908.53;4986355;28;20382;-76
2021/08/04 03:24:09;;;;;;;16.33;8.27;;;;;;;26.11;41.09;93910.78;4983150;28;20046;-77
2021/08/04 03:26:35;;;;;;;11.00;6.80;;;;;;;26.12;41.25;93907.72;4985701;28;20686;-77
2021/08/04 03:29:00;;;;;;;10.60;7.45;;;;;;;26.18;41.38;93911.59;4984588;28;20121;-76
2021/08/04 03:31:26;;;;;;;15.68;7.70;;;;;;;26.24;40.60;93904.66;4984755;28;20370;-76
2021/08/04 03:33:51;;;;;;;12.95;7.60;;;;;;;26.36;40.46;93916.28;4984517;28;20042;-76
2021/08/04 03:36:17;;;;;;;12.88;7.03;;;;;;;26.33;40.65;93911.66;4990205;28;20029;-76
2021/08/04 03:38:42;;;;;;;10.77;6.97;;;;;;;26.48;40.04;93918.63;4984980;28;20069;-76
2021/08/04 03:41:08;;;;;;;12.68;7.13;;;;;;;26.52;40.88;93914.00;4993757;28;20405;-76
2021/08/04 03:43:33;;;;;;;11.23;7.28;;;;;;;26.63;41.43;93914.78;4986832;28;20030;-76
2021/08/04 03:45:59;;;;;;;14.13;7.20;;;;;;;26.66;39.53;93903.94;4987071;28;20066;-77
2021/08/04 03:48:24;;;;;;;11.45;6.68;;;;;;;26.52;38.77;93908.56;4986290;28;20169;-76
2021/08/04 03:50:50;;;;;;;11.75;7.05;;;;;;;26.41;39.14;93918.63;4983767;28;20030;-77
2021/08/04 03:53:15;;;;;;;12.45;6.82;;;;;;;26.38;39.71;93919.41;4984668;28;20469;-77
2021/08/04 03:55:41;;;;;;;13.70;7.50;;;;;;;26.37;40.48;93915.91;4985793;28;20025;-77
2021/08/04 03:58:06;;;;;;;11.70;6.90;;;;;;;26.61;40.55;93911.66;4986682;28;20040;-76
2021/08/04 04:00:32;;;;;;;13.23;8.35;;;;;;;26.63;40.74;93917.50;4985669;28;20038;-76
2021/08/04 04:02:58;;;;;;;14.40;6.85;;;;;;;26.65;40.17;93896.94;4984685;28;20157;-76
2021/08/04 04:05:24;;;;;;;16.60;8.23;;;;;;;26.68;40.33;93917.84;4987950;28;20521;-74
2021/08/04 04:07:49;;;;;;;15.73;7.70;;;;;;;26.75;40.75;93911.66;4986874;28;20447;-76
2021/08/04 04:10:14;;;;;;;15.15;8.35;;;;;;;26.95;40.58;93929.13;4983813;28;20026;-77
2021/08/04 04:12:40;;;;;;;22.63;8.02;;;;;;;27.01;40.86;93924.88;4983682;28;20072;-75
2021/08/04 04:15:06;;;;;;;19.77;8.25;;;;;;;26.93;40.61;93907.03;4983625;28;20073;-76
2021/08/04 04:17:32;;;;;;;24.10;8.30;;;;;;;27.24;39.26;93937.22;4983869;28;20477;-75
2021/08/04 04:19:57;;;;;;;18.05;8.52;;;;;;;27.39;39.48;93949.59;4985387;28;20040;-76
2021/08/04 04:22:23;;;;;;;17.48;7.47;;;;;;;27.44;40.15;93944.56;4982335;28;20041;-76
2021/08/04 04:24:48;;;;;;;16.27;7.30;;;;;;;27.53;40.22;93933.31;4983360;28;20320;-77
2021/08/04 04:27:14;;;;;;;14.43;7.45;;;;;;;27.60;40.56;93941.44;4986556;28;20046;-76
2021/08/04 04:29:39;;;;;;;14.35;7.13;;;;;;;27.65;40.29;93935.63;4981593;28;20034;-76
2021/08/04 04:32:06;;;;;;;11.75;5.55;;;;;;;27.77;40.11;93937.88;4981942;28;20026;-76
2021/08/04 04:34:31;;;;;;;14.63;7.68;;;;;;;27.72;41.38;93930.16;4994748;28;20021;-75
2021/08/04 04:36:57;;;;;;;16.73;6.97;;;;;;;27.81;41.54;93944.06;4986825;28;20311;-76
2021/08/04 04:39:22;;;;;;;17.85;7.28;;;;;;;27.89;41.00;93934.75;4988072;28;20041;-76
2021/08/04 04:41:48;;;;;;;12.40;6.30;;;;;;;28.05;40.26;93936.25;4991164;28;20087;-76
2021/08/04 04:44:13;;;;;;;15.48;6.95;;;;;;;28.05;41.67;93930.81;4991586;28;20100;-76
2021/08/04 04:46:39;;;;;;;17.95;6.68;;;;;;;28.20;40.76;93943.19;4984699;28;20026;-76
2021/08/04 04:49:06;;;;;;;15.95;8.93;;;;;;;28.17;40.57;93946.66;4987876;28;20505;-76
2021/08/04 04:51:32;;;;;;;18.35;8.82;;;;;;;28.34;39.51;93948.53;4986863;28;20042;-76
2021/08/04 04:53:58;;;;;;;18.30;10.43;;;;;;;28.16;39.96;93940.47;4987620;28;20046;-76
2021/08/04 04:56:23;;;;;;;17.80;9.10;;;;;;;28.05;39.31;93963.41;4987259;28;20030;-77
2021/08/04 04:58:48;;;;;;;23.27;10.48;;;;;;;27.75;40.43;93948.38;4988208;28;20041;-76
2021/08/04 05:01:14;;;;;;;21.52;10.60;;;;;;;27.97;40.65;93968.84;4989638;28;20091;-75
2021/08/04 05:03:39;;;;;;;16.80;10.27;;;;;;;27.99;41.26;93955.66;4992000;28;20535;-76
2021/08/04 05:06:04;;;;;;;16.10;9.88;;;;;;;28.20;40.16;93968.38;4988591;28;20045;-76
2021/08/04 05:08:30;;;;;;;19.80;9.45;;;;;;;28.35;40.38;93977.25;4991165;28;20226;-75
2021/08/04 05:10:55;;;;;;;19.98;9.70;;;;;;;28.02;40.99;93971.16;4990554;28;20026;-76
2021/08/04 05:13:21;;;;;;;23.05;10.20;;;;;;;28.01;41.33;93966.13;4986499;28;20033;-76
2021/08/04 05:15:46;;;;;;;15.60;9.82;;;;;;;28.08;41.12;93973.47;4987387;28;20042;-76
2021/08/04 05:18:12;;;;;;;22.02;9.38;;;;;;;28.04;41.50;93968.06;4989123;28;21527;-76
2021/08/04 05:20:37;;;;;;;19.83;9.65;;;;;;;28.08;41.38;93976.19;4985853;28;20080;-75
2021/08/04 05:23:02;;;;;;;20.20;10.65;;;;;;;27.77;41.89;93973.19;4990670;28;20520;-76
2021/08/04 05:25:30;;;;;;;22.58;12.50;;;;;;;27.90;41.69;93978.97;4990040;28;20092;-76
2021/08/04 05:27:56;;;;;;;18.92;10.40;;;;;;;27.84;41.89;93981.31;4991504;28;20068;-76
2021/08/04 05:30:21;;;;;;;14.23;10.15;;;;;;;28.36;40.87;94000.53;4991075;28;20571;-76
2021/08/04 05:32:47;;;;;;;24.88;10.55;;;;;;;28.58;39.32;93990.34;4985874;28;20038;-76
2021/08/04 05:35:13;;;;;;;19.05;10.50;;;;;;;28.67;39.19;93986.00;4995131;28;20037;-76
2021/08/04 05:37:38;;;;;;;16.83;9.30;;;;;;;28.72;39.88;93998.44;4988520;28;20026;-76
2021/08/04 05:40:05;;;;;;;18.33;10.57;;;;;;;28.81;39.27;93996.81;4991319;28;20049;-76
2021/08/04 05:42:31;;;;;;;16.85;9.43;;;;;;;28.79;39.00;94003.81;4990183;28;20390;-76
2021/08/04 05:44:56;;;;;;;24.27;9.55;;;;;;;28.83;39.18;93999.88;4986173;28;20037;-77
2021/08/04 05:47:21;;;;;;;17.25;8.75;;;;;;;28.64;39.55;93994.94;4984750;28;20139;-77
2021/08/04 05:49:48;;;;;;;24.00;9.05;;;;;;;28.72;39.24;93991.03;4987721;28;20504;-78
2021/08/04 05:52:14;;;;;;;18.48;8.60;;;;;;;28.70;39.44;94006.16;4985249;28;20033;-77
2021/08/04 05:54:39;;;;;;;18.80;9.70;;;;;;;28.88;39.21;94011.53;4990011;28;20030;-77
2021/08/04 05:57:05;;;;;;;18.52;9.10;;;;;;;29.02;39.72;94011.44;4983959;28;20852;-78
2021/08/04 05:59:31;;;;;;;20.75;8.80;;;;;;;28.88;39.42;94017.75;4988697;28;20042;-77
2021/08/04 06:01:56;;;;;;;17.33;8.93;;;;;;;28.94;38.52;93999.81;4984724;28;20030;-78
2021/08/04 06:04:22;;;;;;;18.75;8.65;;;;;;;29.00;38.72;94014.56;4986423;28;20483;-75
2021/08/04 06:06:48;;;;;;;17.27;8.85;;;;;;;28.77;38.76;94008.88;4987393;28;20121;-77
2021/08/04 06:09:13;;;;;;;22.67;8.55;;;;;;;28.99;38.84;94020.38;4985743;28;20523;-77
2021/08/04 06:11:39;;;;;;;21.40;8.90;;;;;;;28.79;39.26;94001.88;4987091;28;20078;-77
2021/08/04 06:14:05;;;;;;;16.38;8.73;;;;;;;28.57;39.34;94011.31;4986376;28;20068;-78
2021/08/04 06:16:30;;;;;;;16.58;9.07;;;;;;;28.77;39.80;94009.66;4987728;28;20109;-77
2021/08/04 06:18:56;;;;;;;20.80;8.00;;;;;;;28.97;39.19;93990.09;4985086;28;20045;-76
2021/08/04 06:21:22;;;;;;;24.48;8.48;;;;;;;29.01;38.93;93999.78;4988964;28;20038;-77
2021/08/04 06:23:48;;;;;;;19.33;7.88;;;;;;;29.03;38.81;93999.38;4985563;28;20038;-77
2021/08/04 06:26:15;;;;;;;26.65;9.52;;;;;;;28.93;38.85;93994.81;4987109;28;20129;-77
2021/08/04 06:28:41;;;;;;;17.83;8.35;;;;;;;29.25;38.79;94017.09;4985568;28;20026;-77
2021/08/04 06:31:06;;;;;;;22.95;8.57;;;;;;;29.34;38.39;94014.69;4988428;28;20057;-77
2021/08/04 06:33:31;;;;;;;25.25;8.85;;;;;;;29.20;38.46;94020.22;4985512;28;20034;-77
2021/08/04 06:35:57;;;;;;;22.15;9.48;;;;;;;29.05;38.66;94013.34;4984886;28;20048;-78
2021/08/04 06:38:22;;;;;;;24.25;9.00;;;;;;;29.49;38.08;94032.47;4985994;28;20468;-77
2021/08/04 06:40:47;;;;;;;13.48;7.82;;;;;;;29.45;37.11;94014.63;4982387;28;20032;-77
2021/08/04 06:43:13;;;;;;;16.52;8.45;;;;;;;29.46;36.88;94016.16;4987623;28;20736;-77
2021/08/04 06:45:38;;;;;;;10.30;7.57;;;;;;;29.49;37.17;94037.13;4982352;28;20050;-77
2021/08/04 06:48:08;;;;;;;13.77;7.32;;;;;;;29.47;36.41;94029.34;4986476;28;20088;-77
2021/08/04 06:50:33;;;;;;;18.75;6.75;;;;;;;29.64;36.50;94023.00;4985362;28;20633;-78
2021/08/04 06:52:59;;;;;;;14.90;7.25;;;;;;;29.77;36.45;94012.34;4982361;28;20759;-77
2021/08/04 06:55:24;;;;;;;13.18;6.00;;;;;;;29.94;35.64;94018.81;4986112;28;20080;-77
2021/08/04 06:57:49;;;;;;;18.08;6.88;;;;;;;29.94;35.41;94005.97;4987313;28;20048;-77
2021/08/04 07:00:15;;;;;;;14.73;7.28;;;;;;;29.98;35.20;94011.38;4987528;28;20505;-78
2021/08/04 07:02:40;;;;;;;11.80;7.50;;;;;;;29.89;35.10;94011.09;4986757;28;20099;-77
2021/08/04 07:05:06;;;;;;;13.25;7.05;;;;;;;29.66;34.97;94006.25;4985026;28;20048;-77
2021/08/04 07:07:32;;;;;;;18.00;7.80;;;;;;;29.92;35.15;94004.81;4986157;28;20037;-77
2021/08/04 07:09:59;;;;;;;17.50;7.13;;;;;;;30.29;35.37;94023.88;4987831;28;20511;-76
2021/08/04 07:12:24;;;;;;;20.38;8.32;;;;;;;30.16;34.93;94011.94;4986774;28;20579;-77
2021/08/04 07:14:51;;;;;;;17.40;6.65;;;;;;;30.17;34.64;94015.44;4985729;28;20061;-77
2021/08/04 07:17:16;;;;;;;13.02;7.45;;;;;;;30.34;35.26;94015.25;4986590;28;20073;-77
2021/08/04 07:19:42;;;;;;;16.00;7.32;;;;;;;30.49;33.73;94016.63;4998077;28;20042;-78
2021/08/04 07:22:07;;;;;;;18.73;6.82;;;;;;;30.67;33.54;94010.16;4983802;28;20069;-77
2021/08/04 07:24:33;;;;;;;15.73;7.00;;;;;;;30.63;33.96;93999.31;4983607;28;20457;-77
2021/08/04 07:26:58;;;;;;;15.88;7.63;;;;;;;30.80;34.31;94025.56;4990133;28;20077;-78
2021/08/04 07:29:24;;;;;;;21.20;7.63;;;;;;;30.92;33.23;94010.59;4989973;28;20046;-78
2021/08/04 07:31:49;;;;;;;18.05;7.65;;;;;;;30.92;33.68;94010.59;4986954;28;20385;-77
2021/08/04 07:34:21;;;;;;;24.13;8.00;;;;;;;30.94;33.10;93991.81;4983417;28;20492;-77
2021/08/04 07:36:47;;;;;;;21.58;8.00;;;;;;;30.90;33.29;94002.81;4988990;28;20045;-78
2021/08/04 07:39:13;;;;;;;18.63;7.28;;;;;;;30.85;35.47;94021.59;4982461;28;20074;-77
2021/08/04 07:41:38;;;;;;;14.82;6.78;;;;;;;30.92;33.28;94005.91;4986254;28;20054;-77
2021/08/04 07:44:04;;;;;;;15.85;7.97;;;;;;;31.16;34.12;94023.09;4986041;28;20511;-77
2021/08/04 07:46:29;;;;;;;12.88;6.75;;;;;;;31.03;32.95;94016.69;4983274;28;20050;-76
2021/08/04 07:48:55;;;;;;;17.80;7.63;;;;;;;30.94;32.85;94002.75;4985237;28;20054;-77
2021/08/04 07:51:21;;;;;;;13.88;7.78;;;;;;;30.95;33.74;94012.47;4986076;28;20043;-77
2021/08/04 07:53:46;;;;;;;15.88;8.13;;;;;;;31.07;33.35;93995.56;4983136;28;20101;-77
2021/08/04 07:56:12;;;;;;;22.10;7.95;;;;;;;31.17;33.81;94019.19;4981520;28;20173;-77
2021/08/04 07:58:37;;;;;;;17.48;7.00;;;;;;;30.86;33.17;94018.47;4985984;28;20315;-77
2021/08/04 08:01:02;;;;;;;13.35;6.63;;;;;;;30.92;32.61;93994.97;4982967;28;20050;-77
2021/08/04 08:03:28;;;;;;;18.05;6.95;;;;;;;31.31;33.14;94005.31;4988268;28;20116;-77
2021/08/04 08:05:54;;;;;;;19.13;6.90;;;;;;;31.27;32.57;94004.59;4984020;28;20408;-77
2021/08/04 08:08:19;;;;;;;16.80;7.45;;;;;;;31.24;32.23;94004.66;4988367;28;20362;-77
2021/08/04 08:10:47;;;;;;;14.98;6.72;;;;;;;31.23;33.25;94009.34;4983636;28;20038;-78
2021/08/04 08:13:12;;;;;;;17.65;7.10;;;;;;;31.30;32.95;93992.06;4988128;28;20312;-77
2021/08/04 08:15:38;;;;;;;16.27;7.78;;;;;;;31.57;32.19;93997.50;4984762;28;20125;-77
2021/08/04 08:18:09;;;;;;;11.23;6.05;;;;;;;31.68;31.73;94004.31;4987207;28;20602;-78
2021/08/04 08:20:35;;;;;;;17.48;7.20;;;;;;;31.64;32.39;93989.16;4987837;28;20140;-78
2021/08/04 08:23:01;;;;;;;19.05;7.20;;;;;;;31.59;31.74;93992.38;4986495;28;20328;-78
2021/08/04 08:25:26;;;;;;;12.25;6.63;;;;;;;31.68;31.66;93993.38;4991241;28;20596;-77
2021/08/04 08:27:52;;;;;;;19.52;6.28;;;;;;;31.85;30.96;93999.72;4986726;28;20463;-77
2021/08/04 08:30:17;;;;;;;11.45;6.32;;;;;;;31.72;31.70;94001.50;4990064;28;20554;-77
2021/08/04 08:32:48;;;;;;;14.48;6.85;;;;;;;31.70;31.84;93993.75;4987984;28;20594;-77
2021/08/04 08:35:14;;;;;;;16.13;6.57;;;;;;;31.86;31.68;93995.03;4988994;28;20583;-77
2021/08/04 08:37:40;;;;;;;19.98;8.05;;;;;;;32.05;33.30;93991.53;4986867;28;20059;-77
2021/08/04 08:40:06;;;;;;;19.83;6.63;;;;;;;32.06;32.29;93973.94;4990405;28;20129;-77
2021/08/04 08:42:32;;;;;;;15.98;6.85;;;;;;;32.10;31.65;93978.19;4988935;28;20512;-77
2021/08/04 08:44:58;;;;;;;16.17;6.80;;;;;;;32.09;33.10;93956.69;4987302;28;20029;-77
2021/08/04 08:47:23;;;;;;;10.52;6.80;;;;;;;32.33;31.62;93973.81;4989817;28;20034;-78
2021/08/04 08:49:50;;;;;;;19.17;6.90;;;;;;;32.32;30.80;93961.31;4987941;28;20033;-77
2021/08/04 08:52:16;;;;;;;14.50;5.95;;;;;;;32.23;30.29;93959.94;4989141;28;20033;-77
2021/08/04 08:54:41;;;;;;;13.57;6.68;;;;;;;32.05;29.90;93954.03;4989407;28;20044;-77
2021/08/04 08:57:07;;;;;;;12.30;5.93;;;;;;;32.12;30.94;93959.38;4988476;28;20045;-77
2021/08/04 08:59:33;;;;;;;14.98;5.70;;;;;;;32.27;29.77;93953.59;4983624;28;20034;-77
2021/08/04 09:01:59;;;;;;;19.42;6.60;;;;;;;32.34;30.09;93937.06;4992709;28;20026;-78
2021/08/04 09:04:24;;;;;;;17.92;6.97;;;;;;;32.35;29.23;93944.84;4983700;28;20456;-78
2021/08/04 09:06:53;;;;;;;19.05;6.90;;;;;;;32.52;29.29;93954.63;4987119;28;20125;-78
2021/08/04 09:09:26;;;;;;;17.50;6.07;;;;;;;32.70;29.62;93948.00;4986850;28;20042;-77
2021/08/04 09:11:55;;;;;;;14.05;6.53;;;;;;;32.81;29.58;93949.31;4993158;28;20336;-77
2021/08/04 09:14:30;;;;;;;16.17;5.78;;;;;;;32.98;29.01;93942.66;4986042;28;20096;-78
2021/08/04 09:17:03;;;;;;;;;;;;;;;32.89;28.87;93952.66;4990329;28;20042;-78
2021/08/04 09:19:31;;;;;;;16.70;6.07;;;;;;;32.72;28.44;93934.66;4986521;28;20337;-77
2021/08/04 09:22:10;;;;;;;16.33;6.55;;;;;;;32.71;28.81;93944.84;4986866;28;20046;-77
2021/08/04 09:24:59;;;;;;;13.90;6.18;;;;;;;32.99;29.29;93944.19;4987227;28;20592;-78
2021/08/04 09:27:40;;;;;;;15.25;6.72;;;;;;;33.19;28.74;93943.34;4985798;28;20046;-77
2021/08/04 09:30:06;;;;;;;14.50;6.25;;;;;;;32.92;28.10;93936.16;4987874;28;20042;-77
2021/08/04 09:32:32;;;;;;;16.45;5.88;;;;;;;32.74;28.14;93918.59;4988080;28;20526;-77
2021/08/04 09:35:07;;;;;;;17.02;7.25;;;;;;;33.01;29.19;93917.16;4986380;28;20026;-78
2021/08/04 09:37:33;;;;;;;14.52;5.60;;;;;;;33.15;28.55;93939.91;4989682;28;20022;-78
2021/08/04 09:40:00;;;;;;;14.98;5.32;;;;;;;33.22;28.50;93940.53;4986033;28;20749;-77
2021/08/04 09:42:44;;;;;;;13.70;6.30;;;;;;;33.00;28.66;93934.00;4985048;28;20049;-77
2021/08/04 09:45:10;;;;;;;22.23;6.30;;;;;;;33.30;29.77;93930.16;4989209;28;20521;-77
2021/08/04 09:47:36;;;;;;;16.35;6.10;;;;;;;33.05;28.23;93925.28;4984042;28;20425;-78
2021/08/04 09:50:06;;;;;;;13.48;6.68;;;;;;;33.27;29.02;93926.31;4986821;28;20038;-78
2021/08/04 09:52:32;;;;;;;15.93;6.35;;;;;;;33.38;28.28;93920.56;4986020;28;20091;-77
2021/08/04 09:55:15;;;;;;;15.00;6.03;;;;;;;33.55;27.76;93929.50;4988149;28;20034;-78
2021/08/04 09:57:43;;;;;;;15.15;6.18;;;;;;;33.69;27.48;93918.97;4983427;28;20406;-77
2021/08/04 10:00:19;;;;;;;14.30;5.55;;;;;;;33.50;27.88;93914.38;4984724;28;20038;-77
2021/08/04 10:02:45;;;;;;;17.35;5.68;;;;;;;33.43;27.47;93917.28;4982089;28;20065;-78
2021/08/04 10:05:18;;;;;;;14.70;6.25;;;;;;;33.44;28.42;93921.56;4986807;28;20518;-77
2021/08/04 10:08:01;;;;;;;18.77;5.82;;;;;;;33.45;27.90;93920.38;4987580;28;20032;-77
2021/08/04 10:10:30;;;;;;;20.40;5.85;;;;;;;33.49;27.17;93910.88;4987104;28;20041;-78
2021/08/04 10:12:56;;;;;;;16.80;6.35;;;;;;;33.58;27.39;93912.97;4987266;28;20046;-77
2021/08/04 10:15:23;;;;;;;15.95;6.47;;;;;;;33.55;28.17;93908.38;4982867;28;20045;-78
2021/08/04 10:17:50;;;;;;;14.35;5.43;;;;;;;33.51;27.56;93900.25;4990245;28;20041;-77
2021/08/04 10:20:16;;;;;;;22.08;6.45;;;;;;;33.45;27.28;93898.47;4985461;28;20057;-78
2021/08/04 10:22:41;;;;;;;19.63;5.43;;;;;;;33.24;27.90;93877.09;4990870;28;20508;-78
2021/08/04 10:25:10;;;;;;;15.68;5.90;;;;;;;33.42;28.47;93893.84;4982895;28;20501;-76
2021/08/04 10:27:36;;;;;;;16.67;5.63;;;;;;;33.73;30.05;93899.69;4983969;28;20570;-77
2021/08/04 10:30:02;;;;;;;15.10;5.70;;;;;;;33.79;28.11;93896.00;4986866;28;20156;-77
2021/08/04 10:32:32;;;;;;;14.48;6.68;;;;;;;33.90;27.36;93890.97;4986209;28;20037;-77
2021/08/04 10:34:58;;;;;;;18.13;5.28;;;;;;;33.86;28.46;93857.41;4983771;28;20022;-78
2021/08/04 10:37:24;;;;;;;19.63;5.85;;;;;;;33.99;27.16;93906.00;4987747;28;20076;-77
2021/08/04 10:39:51;;;;;;;16.13;5.35;;;;;;;34.02;27.49;93881.22;4985565;28;20576;-77
2021/08/04 10:42:18;;;;;;;21.02;6.82;;;;;;;34.20;26.92;93891.72;4986100;28;20499;-76
2021/08/04 10:44:46;;;;;;;13.30;6.03;;;;;;;34.08;26.79;93873.22;5001276;28;20711;-77
2021/08/04 10:47:27;;;;;;;13.85;6.22;;;;;;;33.83;26.33;93880.22;4985404;28;20460;-76
2021/08/04 10:50:11;;;;;;;16.83;5.70;;;;;;;33.64;27.48;93872.88;4985735;28;20350;-78
2021/08/04 10:52:56;;;;;;;12.13;5.10;;;;;;;33.90;26.96;93885.50;4985146;28;20425;-77
2021/08/04 10:55:21;;;;;;;16.98;5.65;;;;;;;33.81;26.65;93882.63;4985063;28;20438;-77
2021/08/04 10:58:05;;;;;;;10.82;5.18;;;;;;;33.79;27.05;93874.06;4986364;28;20049;-78
2021/08/04 11:00:31;;;;;;;13.65;5.70;;;;;;;33.61;27.33;93871.03;4989221;28;20042;-77
2021/08/04 11:02:57;;;;;;;13.52;4.38;;;;;;;33.85;26.73;93877.81;4997401;28;20092;-78
2021/08/04 11:05:22;;;;;;;18.55;5.40;;;;;;;33.81;26.78;93874.41;4982962;28;21429;-77
2021/08/04 11:08:19;;;;;;;12.93;5.68;;;;;;;33.93;26.86;93868.16;4986284;28;20030;-77
2021/08/04 11:10:46;;;;;;;11.02;5.82;;;;;;;33.65;26.67;93858.00;4982655;28;20114;-77
2021/08/04 11:13:11;;;;;;;16.85;5.78;;;;;;;33.74;26.59;93871.06;4986832;28;20663;-79
2021/08/04 11:15:37;;;;;;;14.00;5.30;;;;;;;33.88;26.70;93865.97;4986533;28;20042;-77
2021/08/04 11:18:13;;;;;;;13.70;5.50;;;;;;;33.84;26.76;93862.56;4986762;28;20080;-78
2021/08/04 11:21:17;;;;;;;12.98;5.85;;;;;;;34.08;27.05;93859.53;4984878;28;20531;-77
2021/08/04 11:23:48;;;;;;;20.30;5.47;;;;;;;34.09;26.62;93861.84;4986609;28;20072;-77
2021/08/04 11:26:26;;;;;;;13.65;4.88;;;;;;;34.00;26.83;93858.97;4985953;28;20319;-78